Terminal Aerodrome Forecast
Issued by NWS Charleston, WV

Current Version | Previous Version | Graphics & Text | Print | Product List | Glossary On
Versions: 1 2 3 4 5 6 7 8 9 10 11 12 13 14 15 16 17 18 19 20 21 22 23 24 25 26
598
FTUS41 KRLX 240539
TAFEKN
TAF
KEKN 240539Z 2406/2506 00000KT 4SM BR SCT001
     FM240800 00000KT 1/2SM FG VV001
     FM241200 00000KT 6SM BR BKN001
     FM241300 25005KT P6SM SCT035=

USA.gov is the U.S. government's official web portal to all federal, state and local government web resources and services.